sensor_id;sensor_type;location;lat;lon;timestamp;temperature;humidity
27413;DHT22;14871;52.702;5.230;2023-12-20T00:01:06;9.30;99.90
27413;DHT22;14871;52.702;5.230;2023-12-20T00:03:32;9.20;99.90
27413;DHT22;14871;52.702;5.230;2023-12-20T00:05:57;9.10;99.90
27413;DHT22;14871;52.702;5.230;2023-12-20T00:08:23;9.20;99.90
27413;DHT22;14871;52.702;5.230;2023-12-20T00:10:49;9.20;99.90
27413;DHT22;14871;52.702;5.230;2023-12-20T00:13:14;9.30;99.90
27413;DHT22;14871;52.702;5.230;2023-12-20T00:15:40;9.30;99.90
27413;DHT22;14871;52.702;5.230;2023-12-20T00:18:05;9.30;99.90
27413;DHT22;14871;52.702;5.230;2023-12-20T00:20:31;9.30;99.90
27413;DHT22;14871;52.702;5.230;2023-12-20T00:22:57;9.20;99.90
27413;DHT22;14871;52.702;5.230;2023-12-20T00:25:24;9.20;99.90
27413;DHT22;14871;52.702;5.230;2023-12-20T00:27:49;9.20;99.90
27413;DHT22;14871;52.702;5.230;2023-12-20T00:30:15;9.10;99.90
27413;DHT22;14871;52.702;5.230;2023-12-20T00:32:41;9.00;99.90
27413;DHT22;14871;52.702;5.230;2023-12-20T00:35:13;9.10;99.90
27413;DHT22;14871;52.702;5.230;2023-12-20T00:37:39;9.10;99.90
27413;DHT22;14871;52.702;5.230;2023-12-20T00:40:05;9.20;99.90
27413;DHT22;14871;52.702;5.230;2023-12-20T00:42:31;9.20;99.90
27413;DHT22;14871;52.702;5.230;2023-12-20T00:44:57;9.10;99.90
27413;DHT22;14871;52.702;5.230;2023-12-20T00:47:23;9.20;99.90
27413;DHT22;14871;52.702;5.230;2023-12-20T00:49:48;9.00;99.90
27413;DHT22;14871;52.702;5.230;2023-12-20T00:52:14;9.20;99.90
27413;DHT22;14871;52.702;5.230;2023-12-20T00:54:39;9.20;99.90
27413;DHT22;14871;52.702;5.230;2023-12-20T00:57:05;9.40;99.90
27413;DHT22;14871;52.702;5.230;2023-12-20T00:59:30;9.40;99.90
27413;DHT22;14871;52.702;5.230;2023-12-20T01:01:56;9.40;99.90
27413;DHT22;14871;52.702;5.230;2023-12-20T01:04:22;9.30;99.90
27413;DHT22;14871;52.702;5.230;2023-12-20T01:06:47;9.30;99.90
27413;DHT22;14871;52.702;5.230;2023-12-20T01:09:13;9.30;99.90
27413;DHT22;14871;52.702;5.230;2023-12-20T01:11:38;9.50;99.90
27413;DHT22;14871;52.702;5.230;2023-12-20T01:14:04;9.60;99.90
27413;DHT22;14871;52.702;5.230;2023-12-20T01:16:30;9.50;99.90
27413;DHT22;14871;52.702;5.230;2023-12-20T01:18:56;9.30;99.90
27413;DHT22;14871;52.702;5.230;2023-12-20T01:21:21;9.20;99.90
27413;DHT22;14871;52.702;5.230;2023-12-20T01:23:47;9.20;99.90
27413;DHT22;14871;52.702;5.230;2023-12-20T01:26:13;9.20;99.90
27413;DHT22;14871;52.702;5.230;2023-12-20T01:28:39;9.30;99.90
27413;DHT22;14871;52.702;5.230;2023-12-20T01:31:05;9.50;99.90
27413;DHT22;14871;52.702;5.230;2023-12-20T01:33:31;9.50;99.90
27413;DHT22;14871;52.702;5.230;2023-12-20T01:35:57;9.40;99.90
27413;DHT22;14871;52.702;5.230;2023-12-20T01:38:22;9.50;99.90
27413;DHT22;14871;52.702;5.230;2023-12-20T01:40:48;9.50;99.90
27413;DHT22;14871;52.702;5.230;2023-12-20T01:43:13;9.30;99.90
27413;DHT22;14871;52.702;5.230;2023-12-20T01:45:39;9.20;99.90
27413;DHT22;14871;52.702;5.230;2023-12-20T01:48:05;9.30;99.90
27413;DHT22;14871;52.702;5.230;2023-12-20T01:50:32;9.30;99.90
27413;DHT22;14871;52.702;5.230;2023-12-20T01:53:02;9.30;99.90
27413;DHT22;14871;52.702;5.230;2023-12-20T01:55:32;9.30;99.90
27413;DHT22;14871;52.702;5.230;2023-12-20T01:57:59;9.30;99.90
27413;DHT22;14871;52.702;5.230;2023-12-20T02:00:26;9.40;99.90
27413;DHT22;14871;52.702;5.230;2023-12-20T02:02:53;9.50;99.90
27413;DHT22;14871;52.702;5.230;2023-12-20T02:05:24;9.40;99.90
27413;DHT22;14871;52.702;5.230;2023-12-20T02:07:51;9.30;99.90
27413;DHT22;14871;52.702;5.230;2023-12-20T02:10:16;9.60;99.90
27413;DHT22;14871;52.702;5.230;2023-12-20T02:12:42;9.50;99.90
27413;DHT22;14871;52.702;5.230;2023-12-20T02:15:08;9.30;99.90
27413;DHT22;14871;52.702;5.230;2023-12-20T02:17:34;9.40;99.90
27413;DHT22;14871;52.702;5.230;2023-12-20T02:19:59;9.30;99.90
27413;DHT22;14871;52.702;5.230;2023-12-20T02:22:25;9.40;99.90
27413;DHT22;14871;52.702;5.230;2023-12-20T02:24:50;9.40;99.90
27413;DHT22;14871;52.702;5.230;2023-12-20T02:27:18;9.60;99.90
27413;DHT22;14871;52.702;5.230;2023-12-20T02:29:46;9.50;99.90
27413;DHT22;14871;52.702;5.230;2023-12-20T02:32:12;9.40;99.90
27413;DHT22;14871;52.702;5.230;2023-12-20T02:34:38;9.30;99.90
27413;DHT22;14871;52.702;5.230;2023-12-20T02:37:03;9.20;99.90
27413;DHT22;14871;52.702;5.230;2023-12-20T02:39:30;9.20;99.90
27413;DHT22;14871;52.702;5.230;2023-12-20T02:41:56;9.30;99.90
27413;DHT22;14871;52.702;5.230;2023-12-20T02:44:21;9.40;99.90
27413;DHT22;14871;52.702;5.230;2023-12-20T02:46:47;9.30;99.90
27413;DHT22;14871;52.702;5.230;2023-12-20T02:49:12;9.20;99.90
27413;DHT22;14871;52.702;5.230;2023-12-20T02:51:38;9.20;99.90
27413;DHT22;14871;52.702;5.230;2023-12-20T02:54:04;9.10;99.90
27413;DHT22;14871;52.702;5.230;2023-12-20T02:56:31;9.30;99.90
27413;DHT22;14871;52.702;5.230;2023-12-20T02:58:57;9.20;99.90
27413;DHT22;14871;52.702;5.230;2023-12-20T03:01:22;9.20;99.90
27413;DHT22;14871;52.702;5.230;2023-12-20T03:03:48;9.30;99.90
27413;DHT22;14871;52.702;5.230;2023-12-20T03:06:20;9.30;99.90
27413;DHT22;14871;52.702;5.230;2023-12-20T03:08:46;9.30;99.90
27413;DHT22;14871;52.702;5.230;2023-12-20T03:11:11;9.40;99.90
27413;DHT22;14871;52.702;5.230;2023-12-20T03:13:37;9.30;99.90
27413;DHT22;14871;52.702;5.230;2023-12-20T03:16:13;9.20;99.90
27413;DHT22;14871;52.702;5.230;2023-12-20T03:18:39;9.30;99.90
27413;DHT22;14871;52.702;5.230;2023-12-20T03:21:05;9.10;99.90
27413;DHT22;14871;52.702;5.230;2023-12-20T03:23:32;9.20;99.90
27413;DHT22;14871;52.702;5.230;2023-12-20T03:25:59;9.10;99.90
27413;DHT22;14871;52.702;5.230;2023-12-20T03:28:26;9.10;99.90
27413;DHT22;14871;52.702;5.230;2023-12-20T03:30:51;9.00;99.90
27413;DHT22;14871;52.702;5.230;2023-12-20T03:33:17;9.20;99.90
27413;DHT22;14871;52.702;5.230;2023-12-20T03:35:42;9.20;99.90
27413;DHT22;14871;52.702;5.230;2023-12-20T03:38:08;9.10;99.90
27413;DHT22;14871;52.702;5.230;2023-12-20T03:40:34;9.00;99.90
27413;DHT22;14871;52.702;5.230;2023-12-20T03:43:00;9.10;99.90
27413;DHT22;14871;52.702;5.230;2023-12-20T03:45:26;9.00;99.90
27413;DHT22;14871;52.702;5.230;2023-12-20T03:47:52;9.10;99.90
27413;DHT22;14871;52.702;5.230;2023-12-20T03:50:25;9.20;99.90
27413;DHT22;14871;52.702;5.230;2023-12-20T03:52:51;9.40;99.90
27413;DHT22;14871;52.702;5.230;2023-12-20T03:55:16;9.50;99.90
27413;DHT22;14871;52.702;5.230;2023-12-20T03:57:42;9.40;99.90
27413;DHT22;14871;52.702;5.230;2023-12-20T04:00:08;9.40;99.90
27413;DHT22;14871;52.702;5.230;2023-12-20T04:02:41;9.40;99.90
27413;DHT22;14871;52.702;5.230;2023-12-20T04:05:07;9.30;99.90
27413;DHT22;14871;52.702;5.230;2023-12-20T04:07:33;9.30;99.90
27413;DHT22;14871;52.702;5.230;2023-12-20T04:09:59;9.30;99.90
27413;DHT22;14871;52.702;5.230;2023-12-20T04:12:25;9.40;99.90
27413;DHT22;14871;52.702;5.230;2023-12-20T04:14:51;9.30;99.90
27413;DHT22;14871;52.702;5.230;2023-12-20T04:17:17;9.40;99.90
27413;DHT22;14871;52.702;5.230;2023-12-20T04:19:43;9.40;99.90
27413;DHT22;14871;52.702;5.230;2023-12-20T04:22:09;9.40;99.90
27413;DHT22;14871;52.702;5.230;2023-12-20T04:24:35;9.50;99.90
27413;DHT22;14871;52.702;5.230;2023-12-20T04:27:01;9.50;99.90
27413;DHT22;14871;52.702;5.230;2023-12-20T04:29:27;9.30;99.90
27413;DHT22;14871;52.702;5.230;2023-12-20T04:31:53;9.40;99.90
27413;DHT22;14871;52.702;5.230;2023-12-20T04:34:18;9.40;99.90
27413;DHT22;14871;52.702;5.230;2023-12-20T04:36:44;9.40;99.90
27413;DHT22;14871;52.702;5.230;2023-12-20T04:39:12;9.40;99.90
27413;DHT22;14871;52.702;5.230;2023-12-20T04:41:38;9.40;99.90
27413;DHT22;14871;52.702;5.230;2023-12-20T04:44:05;9.60;99.90
27413;DHT22;14871;52.702;5.230;2023-12-20T04:46:31;9.70;99.90
27413;DHT22;14871;52.702;5.230;2023-12-20T04:48:57;9.70;99.90
27413;DHT22;14871;52.702;5.230;2023-12-20T04:51:23;9.50;99.90
27413;DHT22;14871;52.702;5.230;2023-12-20T04:53:48;9.40;99.90
27413;DHT22;14871;52.702;5.230;2023-12-20T04:56:14;9.50;99.90
27413;DHT22;14871;52.702;5.230;2023-12-20T04:58:39;9.50;99.90
27413;DHT22;14871;52.702;5.230;2023-12-20T05:01:06;9.40;99.90
27413;DHT22;14871;52.702;5.230;2023-12-20T05:03:32;9.60;99.90
27413;DHT22;14871;52.702;5.230;2023-12-20T05:05:58;9.60;99.90
27413;DHT22;14871;52.702;5.230;2023-12-20T05:08:23;9.50;99.90
27413;DHT22;14871;52.702;5.230;2023-12-20T05:10:51;9.50;99.90
27413;DHT22;14871;52.702;5.230;2023-12-20T05:13:17;9.70;99.90
27413;DHT22;14871;52.702;5.230;2023-12-20T05:15:42;9.80;99.90
27413;DHT22;14871;52.702;5.230;2023-12-20T05:18:08;9.70;99.90
27413;DHT22;14871;52.702;5.230;2023-12-20T05:20:34;9.60;99.90
27413;DHT22;14871;52.702;5.230;2023-12-20T05:22:59;9.70;99.90
27413;DHT22;14871;52.702;5.230;2023-12-20T05:25:25;9.60;99.90
27413;DHT22;14871;52.702;5.230;2023-12-20T05:27:50;9.80;99.90
27413;DHT22;14871;52.702;5.230;2023-12-20T05:30:16;9.60;99.90
27413;DHT22;14871;52.702;5.230;2023-12-20T05:32:41;9.70;99.90
27413;DHT22;14871;52.702;5.230;2023-12-20T05:35:07;9.80;99.90
27413;DHT22;14871;52.702;5.230;2023-12-20T05:37:33;9.80;99.90
27413;DHT22;14871;52.702;5.230;2023-12-20T05:39:58;9.70;99.90
27413;DHT22;14871;52.702;5.230;2023-12-20T05:42:24;9.60;99.90
27413;DHT22;14871;52.702;5.230;2023-12-20T05:44:50;9.70;99.90
27413;DHT22;14871;52.702;5.230;2023-12-20T05:47:15;9.80;99.90
27413;DHT22;14871;52.702;5.230;2023-12-20T05:49:41;9.60;99.90
27413;DHT22;14871;52.702;5.230;2023-12-20T05:52:07;9.60;99.90
27413;DHT22;14871;52.702;5.230;2023-12-20T05:54:32;9.60;99.90
27413;DHT22;14871;52.702;5.230;2023-12-20T05:56:59;9.70;99.90
27413;DHT22;14871;52.702;5.230;2023-12-20T05:59:26;9.60;99.90
27413;DHT22;14871;52.702;5.230;2023-12-20T06:01:51;9.60;99.90
27413;DHT22;14871;52.702;5.230;2023-12-20T06:04:17;9.60;99.90
27413;DHT22;14871;52.702;5.230;2023-12-20T06:06:43;9.60;99.90
27413;DHT22;14871;52.702;5.230;2023-12-20T06:09:08;9.60;99.90
27413;DHT22;14871;52.702;5.230;2023-12-20T06:11:34;9.70;99.90
27413;DHT22;14871;52.702;5.230;2023-12-20T06:14:00;9.70;99.90
27413;DHT22;14871;52.702;5.230;2023-12-20T06:16:25;9.80;99.90
27413;DHT22;14871;52.702;5.230;2023-12-20T06:18:51;9.70;99.90
27413;DHT22;14871;52.702;5.230;2023-12-20T06:21:16;9.80;99.90
27413;DHT22;14871;52.702;5.230;2023-12-20T06:23:42;9.90;99.90
27413;DHT22;14871;52.702;5.230;2023-12-20T06:26:08;9.90;99.90
27413;DHT22;14871;52.702;5.230;2023-12-20T06:28:33;9.80;99.90
27413;DHT22;14871;52.702;5.230;2023-12-20T06:30:59;9.70;99.90
27413;DHT22;14871;52.702;5.230;2023-12-20T06:33:26;9.80;99.90
27413;DHT22;14871;52.702;5.230;2023-12-20T06:35:51;9.70;99.90
27413;DHT22;14871;52.702;5.230;2023-12-20T06:38:18;9.90;99.90
27413;DHT22;14871;52.702;5.230;2023-12-20T06:40:44;9.80;99.90
27413;DHT22;14871;52.702;5.230;2023-12-20T06:43:10;9.80;99.90
27413;DHT22;14871;52.702;5.230;2023-12-20T06:45:35;9.90;99.90
27413;DHT22;14871;52.702;5.230;2023-12-20T06:48:01;9.90;99.90
27413;DHT22;14871;52.702;5.230;2023-12-20T06:50:26;10.00;99.90
27413;DHT22;14871;52.702;5.230;2023-12-20T06:52:53;10.00;99.90
27413;DHT22;14871;52.702;5.230;2023-12-20T06:55:18;9.90;99.90
27413;DHT22;14871;52.702;5.230;2023-12-20T06:57:44;9.90;99.90
27413;DHT22;14871;52.702;5.230;2023-12-20T07:00:11;9.90;99.90
27413;DHT22;14871;52.702;5.230;2023-12-20T07:02:37;10.00;99.90
27413;DHT22;14871;52.702;5.230;2023-12-20T07:05:03;9.90;99.90
27413;DHT22;14871;52.702;5.230;2023-12-20T07:07:29;9.90;99.90
27413;DHT22;14871;52.702;5.230;2023-12-20T07:09:55;9.90;99.90
27413;DHT22;14871;52.702;5.230;2023-12-20T07:12:20;9.90;99.90
27413;DHT22;14871;52.702;5.230;2023-12-20T07:14:46;9.80;99.90
27413;DHT22;14871;52.702;5.230;2023-12-20T07:17:12;9.90;99.90
27413;DHT22;14871;52.702;5.230;2023-12-20T07:19:40;9.80;99.90
27413;DHT22;14871;52.702;5.230;2023-12-20T07:22:06;9.90;99.90
27413;DHT22;14871;52.702;5.230;2023-12-20T07:24:32;9.90;99.90
27413;DHT22;14871;52.702;5.230;2023-12-20T07:26:59;9.80;99.90
27413;DHT22;14871;52.702;5.230;2023-12-20T07:29:25;9.70;99.90
27413;DHT22;14871;52.702;5.230;2023-12-20T07:31:50;9.80;99.90
27413;DHT22;14871;52.702;5.230;2023-12-20T07:34:17;9.80;99.90
27413;DHT22;14871;52.702;5.230;2023-12-20T07:36:43;9.80;99.90
27413;DHT22;14871;52.702;5.230;2023-12-20T07:39:08;9.80;99.90
27413;DHT22;14871;52.702;5.230;2023-12-20T07:41:34;9.80;99.90
27413;DHT22;14871;52.702;5.230;2023-12-20T07:43:59;9.90;99.90
27413;DHT22;14871;52.702;5.230;2023-12-20T07:46:25;9.80;99.90
27413;DHT22;14871;52.702;5.230;2023-12-20T07:48:51;9.70;99.90
27413;DHT22;14871;52.702;5.230;2023-12-20T07:51:16;9.80;99.90
27413;DHT22;14871;52.702;5.230;2023-12-20T07:53:42;9.80;99.90
27413;DHT22;14871;52.702;5.230;2023-12-20T07:56:18;9.80;99.90
27413;DHT22;14871;52.702;5.230;2023-12-20T07:58:45;9.80;99.90
27413;DHT22;14871;52.702;5.230;2023-12-20T08:01:12;9.90;99.90
27413;DHT22;14871;52.702;5.230;2023-12-20T08:03:38;9.80;99.90
27413;DHT22;14871;52.702;5.230;2023-12-20T08:06:04;9.80;99.90
27413;DHT22;14871;52.702;5.230;2023-12-20T08:08:30;9.80;99.90
27413;DHT22;14871;52.702;5.230;2023-12-20T08:10:56;9.80;99.90
27413;DHT22;14871;52.702;5.230;2023-12-20T08:13:24;10.00;99.90
27413;DHT22;14871;52.702;5.230;2023-12-20T08:15:52;9.90;99.90
27413;DHT22;14871;52.702;5.230;2023-12-20T08:18:17;9.90;99.90
27413;DHT22;14871;52.702;5.230;2023-12-20T08:20:43;10.00;99.90
27413;DHT22;14871;52.702;5.230;2023-12-20T08:23:08;9.90;99.90
27413;DHT22;14871;52.702;5.230;2023-12-20T08:25:34;9.80;99.90
27413;DHT22;14871;52.702;5.230;2023-12-20T08:28:00;10.00;99.90
27413;DHT22;14871;52.702;5.230;2023-12-20T08:30:26;9.90;99.90
27413;DHT22;14871;52.702;5.230;2023-12-20T08:32:51;9.90;99.90
27413;DHT22;14871;52.702;5.230;2023-12-20T08:35:17;9.80;99.90
27413;DHT22;14871;52.702;5.230;2023-12-20T08:37:44;9.90;99.90
27413;DHT22;14871;52.702;5.230;2023-12-20T08:40:10;9.90;99.90
27413;DHT22;14871;52.702;5.230;2023-12-20T08:42:35;9.90;99.90
27413;DHT22;14871;52.702;5.230;2023-12-20T08:45:01;9.90;99.90
27413;DHT22;14871;52.702;5.230;2023-12-20T08:47:29;10.00;99.90
27413;DHT22;14871;52.702;5.230;2023-12-20T08:49:54;10.10;99.90
27413;DHT22;14871;52.702;5.230;2023-12-20T08:52:22;10.10;99.90
27413;DHT22;14871;52.702;5.230;2023-12-20T08:54:49;10.10;99.90
27413;DHT22;14871;52.702;5.230;2023-12-20T08:57:18;10.00;99.90
27413;DHT22;14871;52.702;5.230;2023-12-20T08:59:43;10.20;99.90
27413;DHT22;14871;52.702;5.230;2023-12-20T09:02:09;10.10;99.90
27413;DHT22;14871;52.702;5.230;2023-12-20T09:04:35;10.20;99.90
27413;DHT22;14871;52.702;5.230;2023-12-20T09:07:00;10.40;99.90
27413;DHT22;14871;52.702;5.230;2023-12-20T09:09:26;10.30;99.90
27413;DHT22;14871;52.702;5.230;2023-12-20T09:11:52;10.30;99.90
27413;DHT22;14871;52.702;5.230;2023-12-20T09:14:18;10.40;99.90
27413;DHT22;14871;52.702;5.230;2023-12-20T09:16:43;10.50;99.90
27413;DHT22;14871;52.702;5.230;2023-12-20T09:19:09;10.40;99.90
27413;DHT22;14871;52.702;5.230;2023-12-20T09:21:34;10.50;99.90
27413;DHT22;14871;52.702;5.230;2023-12-20T09:24:00;10.60;99.90
27413;DHT22;14871;52.702;5.230;2023-12-20T09:26:26;10.70;99.90
27413;DHT22;14871;52.702;5.230;2023-12-20T09:28:51;10.80;99.90
27413;DHT22;14871;52.702;5.230;2023-12-20T09:31:17;10.80;99.90
27413;DHT22;14871;52.702;5.230;2023-12-20T09:33:42;10.70;99.90
27413;DHT22;14871;52.702;5.230;2023-12-20T09:36:08;10.70;99.90
27413;DHT22;14871;52.702;5.230;2023-12-20T09:38:34;10.70;99.90
27413;DHT22;14871;52.702;5.230;2023-12-20T09:41:00;10.70;99.90
27413;DHT22;14871;52.702;5.230;2023-12-20T09:43:27;10.60;99.90
27413;DHT22;14871;52.702;5.230;2023-12-20T09:46:00;10.80;99.90
27413;DHT22;14871;52.702;5.230;2023-12-20T09:48:27;10.60;99.90
27413;DHT22;14871;52.702;5.230;2023-12-20T09:50:54;10.50;99.90
27413;DHT22;14871;52.702;5.230;2023-12-20T09:53:21;10.60;99.90
27413;DHT22;14871;52.702;5.230;2023-12-20T09:55:48;10.60;99.90
27413;DHT22;14871;52.702;5.230;2023-12-20T09:58:14;10.40;99.90
27413;DHT22;14871;52.702;5.230;2023-12-20T10:00:40;10.50;99.90
27413;DHT22;14871;52.702;5.230;2023-12-20T10:03:06;10.50;99.90
27413;DHT22;14871;52.702;5.230;2023-12-20T10:05:33;10.50;99.90
27413;DHT22;14871;52.702;5.230;2023-12-20T10:08:00;10.50;99.90
27413;DHT22;14871;52.702;5.230;2023-12-20T10:10:27;10.60;99.90
27413;DHT22;14871;52.702;5.230;2023-12-20T10:15:36;10.70;99.90
27413;DHT22;14871;52.702;5.230;2023-12-20T10:18:02;10.70;99.90
27413;DHT22;14871;52.702;5.230;2023-12-20T10:20:28;10.80;99.90
27413;DHT22;14871;52.702;5.230;2023-12-20T10:22:55;10.80;99.90
27413;DHT22;14871;52.702;5.230;2023-12-20T10:25:21;10.80;99.90
27413;DHT22;14871;52.702;5.230;2023-12-20T10:27:47;10.80;99.90
27413;DHT22;14871;52.702;5.230;2023-12-20T10:30:14;10.80;99.90
27413;DHT22;14871;52.702;5.230;2023-12-20T10:32:40;10.80;99.90
27413;DHT22;14871;52.702;5.230;2023-12-20T10:35:06;10.90;99.90
27413;DHT22;14871;52.702;5.230;2023-12-20T10:37:36;10.80;99.90
27413;DHT22;14871;52.702;5.230;2023-12-20T10:40:04;11.00;99.90
27413;DHT22;14871;52.702;5.230;2023-12-20T10:42:32;11.70;99.90
27413;DHT22;14871;52.702;5.230;2023-12-20T10:44:59;12.30;99.90
27413;DHT22;14871;52.702;5.230;2023-12-20T10:47:25;12.40;99.90
27413;DHT22;14871;52.702;5.230;2023-12-20T10:49:52;12.50;99.90
27413;DHT22;14871;52.702;5.230;2023-12-20T10:52:18;12.50;99.90
27413;DHT22;14871;52.702;5.230;2023-12-20T10:54:45;12.60;99.90
27413;DHT22;14871;52.702;5.230;2023-12-20T10:57:11;12.50;99.90
27413;DHT22;14871;52.702;5.230;2023-12-20T10:59:37;12.10;99.90
27413;DHT22;14871;52.702;5.230;2023-12-20T11:02:05;11.90;99.90
27413;DHT22;14871;52.702;5.230;2023-12-20T11:04:47;11.80;99.90
27413;DHT22;14871;52.702;5.230;2023-12-20T11:07:32;11.70;99.90
27413;DHT22;14871;52.702;5.230;2023-12-20T11:10:09;11.60;99.90
27413;DHT22;14871;52.702;5.230;2023-12-20T11:12:47;11.60;99.90
27413;DHT22;14871;52.702;5.230;2023-12-20T11:15:16;11.60;99.90
27413;DHT22;14871;52.702;5.230;2023-12-20T11:17:44;11.70;99.90
27413;DHT22;14871;52.702;5.230;2023-12-20T11:20:11;11.60;99.90
27413;DHT22;14871;52.702;5.230;2023-12-20T11:22:38;11.40;99.90
27413;DHT22;14871;52.702;5.230;2023-12-20T11:25:08;11.40;99.90
27413;DHT22;14871;52.702;5.230;2023-12-20T11:27:35;11.40;99.90
27413;DHT22;14871;52.702;5.230;2023-12-20T11:30:03;11.50;99.90
27413;DHT22;14871;52.702;5.230;2023-12-20T11:32:34;11.40;99.90
27413;DHT22;14871;52.702;5.230;2023-12-20T11:35:16;11.40;99.90
27413;DHT22;14871;52.702;5.230;2023-12-20T11:37:42;11.40;99.90
27413;DHT22;14871;52.702;5.230;2023-12-20T11:40:12;11.20;99.90
27413;DHT22;14871;52.702;5.230;2023-12-20T11:42:45;11.10;99.90
27413;DHT22;14871;52.702;5.230;2023-12-20T11:45:15;11.10;99.90
27413;DHT22;14871;52.702;5.230;2023-12-20T11:47:46;11.30;99.90
27413;DHT22;14871;52.702;5.230;2023-12-20T11:50:12;11.10;99.90
27413;DHT22;14871;52.702;5.230;2023-12-20T11:52:38;11.10;99.90
27413;DHT22;14871;52.702;5.230;2023-12-20T11:55:04;11.20;99.90
27413;DHT22;14871;52.702;5.230;2023-12-20T11:57:30;11.30;99.90
27413;DHT22;14871;52.702;5.230;2023-12-20T11:59:56;11.20;99.90
27413;DHT22;14871;52.702;5.230;2023-12-20T12:02:22;11.10;99.90
27413;DHT22;14871;52.702;5.230;2023-12-20T12:04:49;11.20;99.90
27413;DHT22;14871;52.702;5.230;2023-12-20T12:07:16;11.20;99.90
27413;DHT22;14871;52.702;5.230;2023-12-20T12:09:42;11.30;99.90
27413;DHT22;14871;52.702;5.230;2023-12-20T12:12:08;11.20;99.90
27413;DHT22;14871;52.702;5.230;2023-12-20T12:14:34;11.20;99.90
27413;DHT22;14871;52.702;5.230;2023-12-20T12:17:02;11.10;99.90
27413;DHT22;14871;52.702;5.230;2023-12-20T12:19:29;11.30;99.90
27413;DHT22;14871;52.702;5.230;2023-12-20T12:22:15;11.50;99.90
27413;DHT22;14871;52.702;5.230;2023-12-20T12:24:46;11.30;99.90
27413;DHT22;14871;52.702;5.230;2023-12-20T12:27:16;11.20;99.90
27413;DHT22;14871;52.702;5.230;2023-12-20T12:30:03;11.20;99.90
27413;DHT22;14871;52.702;5.230;2023-12-20T12:32:29;11.30;99.90
27413;DHT22;14871;52.702;5.230;2023-12-20T12:34:55;11.20;99.90
27413;DHT22;14871;52.702;5.230;2023-12-20T12:37:22;11.20;99.90
27413;DHT22;14871;52.702;5.230;2023-12-20T12:39:49;11.20;99.90
27413;DHT22;14871;52.702;5.230;2023-12-20T12:42:15;11.10;99.90
27413;DHT22;14871;52.702;5.230;2023-12-20T12:44:41;11.10;99.90
27413;DHT22;14871;52.702;5.230;2023-12-20T12:47:06;11.00;99.90
27413;DHT22;14871;52.702;5.230;2023-12-20T12:49:33;11.10;99.90
27413;DHT22;14871;52.702;5.230;2023-12-20T12:51:59;11.10;99.90
27413;DHT22;14871;52.702;5.230;2023-12-20T12:54:24;11.00;99.90
27413;DHT22;14871;52.702;5.230;2023-12-20T12:56:50;11.10;99.90
27413;DHT22;14871;52.702;5.230;2023-12-20T12:59:19;11.10;99.90
27413;DHT22;14871;52.702;5.230;2023-12-20T13:01:45;11.30;99.90
27413;DHT22;14871;52.702;5.230;2023-12-20T13:04:10;11.10;99.90
27413;DHT22;14871;52.702;5.230;2023-12-20T13:06:39;11.00;99.90
27413;DHT22;14871;52.702;5.230;2023-12-20T13:09:07;10.80;99.90
27413;DHT22;14871;52.702;5.230;2023-12-20T13:11:35;11.00;99.90
27413;DHT22;14871;52.702;5.230;2023-12-20T13:14:00;10.90;99.90
27413;DHT22;14871;52.702;5.230;2023-12-20T13:16:26;10.80;99.90
27413;DHT22;14871;52.702;5.230;2023-12-20T13:18:53;10.90;99.90
27413;DHT22;14871;52.702;5.230;2023-12-20T13:21:18;10.90;99.90
27413;DHT22;14871;52.702;5.230;2023-12-20T13:23:44;10.90;99.90
27413;DHT22;14871;52.702;5.230;2023-12-20T13:26:10;10.80;99.90
27413;DHT22;14871;52.702;5.230;2023-12-20T13:28:35;11.00;99.90
27413;DHT22;14871;52.702;5.230;2023-12-20T13:31:01;10.80;99.90
27413;DHT22;14871;52.702;5.230;2023-12-20T13:33:30;11.00;99.90
27413;DHT22;14871;52.702;5.230;2023-12-20T13:35:55;10.90;99.90
27413;DHT22;14871;52.702;5.230;2023-12-20T13:38:23;11.00;99.90
27413;DHT22;14871;52.702;5.230;2023-12-20T13:40:49;11.10;99.90
27413;DHT22;14871;52.702;5.230;2023-12-20T13:43:15;11.00;99.90
27413;DHT22;14871;52.702;5.230;2023-12-20T13:45:46;11.00;99.90
27413;DHT22;14871;52.702;5.230;2023-12-20T13:48:12;11.00;99.90
27413;DHT22;14871;52.702;5.230;2023-12-20T13:50:38;10.90;99.90
27413;DHT22;14871;52.702;5.230;2023-12-20T13:53:03;11.10;99.90
27413;DHT22;14871;52.702;5.230;2023-12-20T13:55:29;11.10;99.90
27413;DHT22;14871;52.702;5.230;2023-12-20T13:57:56;11.20;99.90
27413;DHT22;14871;52.702;5.230;2023-12-20T14:00:22;11.30;99.90
27413;DHT22;14871;52.702;5.230;2023-12-20T14:02:48;11.20;99.90
27413;DHT22;14871;52.702;5.230;2023-12-20T14:05:14;11.20;99.90
27413;DHT22;14871;52.702;5.230;2023-12-20T14:07:43;11.20;99.90
27413;DHT22;14871;52.702;5.230;2023-12-20T14:10:11;11.30;99.90
27413;DHT22;14871;52.702;5.230;2023-12-20T14:12:38;11.10;99.90
27413;DHT22;14871;52.702;5.230;2023-12-20T14:15:04;11.00;99.90
27413;DHT22;14871;52.702;5.230;2023-12-20T14:17:29;10.90;99.90
27413;DHT22;14871;52.702;5.230;2023-12-20T14:19:56;10.90;99.90
27413;DHT22;14871;52.702;5.230;2023-12-20T14:22:22;10.90;99.90
27413;DHT22;14871;52.702;5.230;2023-12-20T14:24:47;10.80;99.90
27413;DHT22;14871;52.702;5.230;2023-12-20T14:27:13;10.80;99.90
27413;DHT22;14871;52.702;5.230;2023-12-20T14:29:38;10.90;99.90
27413;DHT22;14871;52.702;5.230;2023-12-20T14:32:04;10.90;99.90
27413;DHT22;14871;52.702;5.230;2023-12-20T14:34:31;11.20;99.90
27413;DHT22;14871;52.702;5.230;2023-12-20T14:36:56;11.00;99.90
27413;DHT22;14871;52.702;5.230;2023-12-20T14:39:22;10.90;99.90
27413;DHT22;14871;52.702;5.230;2023-12-20T14:41:48;10.80;99.90
27413;DHT22;14871;52.702;5.230;2023-12-20T14:44:14;10.90;99.90
27413;DHT22;14871;52.702;5.230;2023-12-20T14:46:39;10.90;99.90
27413;DHT22;14871;52.702;5.230;2023-12-20T14:49:05;11.00;99.90
27413;DHT22;14871;52.702;5.230;2023-12-20T14:51:31;11.00;99.90
27413;DHT22;14871;52.702;5.230;2023-12-20T14:53:56;11.00;99.90
27413;DHT22;14871;52.702;5.230;2023-12-20T14:56:23;10.90;99.90
27413;DHT22;14871;52.702;5.230;2023-12-20T14:58:51;11.00;99.90
27413;DHT22;14871;52.702;5.230;2023-12-20T15:01:16;10.90;99.90
27413;DHT22;14871;52.702;5.230;2023-12-20T15:03:46;10.90;99.90
27413;DHT22;14871;52.702;5.230;2023-12-20T15:06:12;10.90;99.90
27413;DHT22;14871;52.702;5.230;2023-12-20T15:08:37;10.90;99.90
27413;DHT22;14871;52.702;5.230;2023-12-20T15:11:03;10.80;99.90
27413;DHT22;14871;52.702;5.230;2023-12-20T15:13:30;11.00;99.90
27413;DHT22;14871;52.702;5.230;2023-12-20T15:15:56;11.30;99.90
27413;DHT22;14871;52.702;5.230;2023-12-20T15:18:22;11.30;99.90
27413;DHT22;14871;52.702;5.230;2023-12-20T15:20:47;11.40;99.90
27413;DHT22;14871;52.702;5.230;2023-12-20T15:23:13;11.20;99.90
27413;DHT22;14871;52.702;5.230;2023-12-20T15:25:39;11.20;99.90
27413;DHT22;14871;52.702;5.230;2023-12-20T15:28:04;11.10;99.90
27413;DHT22;14871;52.702;5.230;2023-12-20T15:30:30;11.00;99.90
27413;DHT22;14871;52.702;5.230;2023-12-20T15:32:56;10.90;99.90
27413;DHT22;14871;52.702;5.230;2023-12-20T15:35:22;11.20;99.90
27413;DHT22;14871;52.702;5.230;2023-12-20T15:37:48;11.00;99.90